Tres Passos, Brazil
Current Conditions -  °F | °C
As of 10:00 PM on Sunday 21 Dec 2014 (Local Time) from SBCH Reporting Station
Light Fog Light Fog  
Wind Chill: 66°   Ceiling: 100
Heat Index: 66°   Visibility: 1.2mi
Dew Point: 66°   Wind: 7mph
Humidity: 100%   Direction: 260°W
Pressure: 29.77"   Gusts: NA
Location:  27.46°S, 53.93°W
Report Text: SBCH 220000Z 26006KT 2000 BCFG BKN001 SCT040 19/19 Q1008
Loading
Personal Weather Stations






























Interactive Weather Map New forecast layout! Learn more

10-Day Weather Forecast

Advertisements
Track Severe Weather on mobile